sensor_id;sensor_type;location;lat;lon;timestamp;P1;durP1;ratioP1;P2;durP2;ratioP2
215;SDS011;45701;48.81287245;9.14186865;2022-08-11T00:02:31;8.63;;;5.37;;
215;SDS011;45701;48.81287245;9.14186865;2022-08-11T00:05:02;7.20;;;5.07;;
215;SDS011;45701;48.81287245;9.14186865;2022-08-11T00:07:31;9.03;;;5.13;;
215;SDS011;45701;48.81287245;9.14186865;2022-08-11T00:09:59;10.53;;;4.90;;
215;SDS011;45701;48.81287245;9.14186865;2022-08-11T00:12:27;13.20;;;4.90;;
215;SDS011;45701;48.81287245;9.14186865;2022-08-11T00:14:57;10.37;;;4.60;;
215;SDS011;45701;48.81287245;9.14186865;2022-08-11T00:17:29;7.03;;;4.70;;
215;SDS011;45701;48.81287245;9.14186865;2022-08-11T00:20:05;14.43;;;5.03;;
215;SDS011;45701;48.81287245;9.14186865;2022-08-11T00:22:34;8.77;;;4.83;;
215;SDS011;45701;48.81287245;9.14186865;2022-08-11T00:25:07;7.37;;;4.97;;
215;SDS011;45701;48.81287245;9.14186865;2022-08-11T00:27:36;10.23;;;5.10;;
215;SDS011;45701;48.81287245;9.14186865;2022-08-11T00:30:07;8.13;;;5.10;;
215;SDS011;45701;48.81287245;9.14186865;2022-08-11T00:32:37;10.27;;;5.00;;
215;SDS011;45701;48.81287245;9.14186865;2022-08-11T00:35:06;13.47;;;5.63;;
215;SDS011;45701;48.81287245;9.14186865;2022-08-11T00:37:36;10.73;;;5.20;;
215;SDS011;45701;48.81287245;9.14186865;2022-08-11T00:40:04;7.90;;;5.10;;
215;SDS011;45701;48.81287245;9.14186865;2022-08-11T00:42:40;8.20;;;5.27;;
215;SDS011;45701;48.81287245;9.14186865;2022-08-11T00:45:18;7.73;;;5.23;;
215;SDS011;45701;48.81287245;9.14186865;2022-08-11T00:47:52;7.27;;;4.97;;
215;SDS011;45701;48.81287245;9.14186865;2022-08-11T00:50:29;10.43;;;5.00;;
215;SDS011;45701;48.81287245;9.14186865;2022-08-11T00:53:11;8.70;;;5.30;;
215;SDS011;45701;48.81287245;9.14186865;2022-08-11T00:56:01;10.90;;;5.30;;
215;SDS011;45701;48.81287245;9.14186865;2022-08-11T00:59:18;8.17;;;5.10;;
215;SDS011;45701;48.81287245;9.14186865;2022-08-11T01:02:16;8.00;;;5.00;;
215;SDS011;45701;48.81287245;9.14186865;2022-08-11T01:04:55;8.17;;;4.83;;
215;SDS011;45701;48.81287245;9.14186865;2022-08-11T01:07:51;6.63;;;5.10;;
215;SDS011;45701;48.81287245;9.14186865;2022-08-11T01:10:43;10.50;;;5.40;;
215;SDS011;45701;48.81287245;9.14186865;2022-08-11T01:16:37;11.60;;;4.80;;
215;SDS011;45701;48.81287245;9.14186865;2022-08-11T01:19:35;6.60;;;4.70;;
215;SDS011;45701;48.81287245;9.14186865;2022-08-11T01:25:41;7.23;;;4.97;;
215;SDS011;45701;48.81287245;9.14186865;2022-08-11T01:31:39;10.33;;;5.17;;
215;SDS011;45701;48.81287245;9.14186865;2022-08-11T01:38:10;9.40;;;5.37;;
215;SDS011;45701;48.81287245;9.14186865;2022-08-11T01:47:05;6.97;;;4.90;;
215;SDS011;45701;48.81287245;9.14186865;2022-08-11T01:50:06;12.20;;;5.07;;
215;SDS011;45701;48.81287245;9.14186865;2022-08-11T01:52:42;6.90;;;5.03;;
215;SDS011;45701;48.81287245;9.14186865;2022-08-11T01:55:24;9.07;;;5.40;;
215;SDS011;45701;48.81287245;9.14186865;2022-08-11T01:57:55;8.50;;;5.40;;
215;SDS011;45701;48.81287245;9.14186865;2022-08-11T02:00:34;8.37;;;4.90;;
215;SDS011;45701;48.81287245;9.14186865;2022-08-11T02:03:12;7.37;;;5.27;;
215;SDS011;45701;48.81287245;9.14186865;2022-08-11T02:05:56;8.37;;;4.80;;
215;SDS011;45701;48.81287245;9.14186865;2022-08-11T02:08:33;16.80;;;5.60;;
215;SDS011;45701;48.81287245;9.14186865;2022-08-11T02:11:17;7.80;;;5.17;;
215;SDS011;45701;48.81287245;9.14186865;2022-08-11T02:13:59;8.37;;;5.00;;
215;SDS011;45701;48.81287245;9.14186865;2022-08-11T02:16:36;8.40;;;5.40;;
215;SDS011;45701;48.81287245;9.14186865;2022-08-11T02:19:17;13.23;;;5.30;;
215;SDS011;45701;48.81287245;9.14186865;2022-08-11T02:22:08;8.50;;;5.13;;
215;SDS011;45701;48.81287245;9.14186865;2022-08-11T02:25:01;7.83;;;5.50;;
215;SDS011;45701;48.81287245;9.14186865;2022-08-11T02:27:35;8.40;;;5.20;;
215;SDS011;45701;48.81287245;9.14186865;2022-08-11T02:30:07;11.83;;;5.57;;
215;SDS011;45701;48.81287245;9.14186865;2022-08-11T02:32:38;7.60;;;4.90;;
215;SDS011;45701;48.81287245;9.14186865;2022-08-11T02:35:31;9.93;;;5.30;;
215;SDS011;45701;48.81287245;9.14186865;2022-08-11T02:38:17;9.00;;;5.30;;
215;SDS011;45701;48.81287245;9.14186865;2022-08-11T02:40:52;14.33;;;5.33;;
215;SDS011;45701;48.81287245;9.14186865;2022-08-11T02:43:28;10.70;;;5.20;;
215;SDS011;45701;48.81287245;9.14186865;2022-08-11T02:46:15;8.87;;;4.90;;
215;SDS011;45701;48.81287245;9.14186865;2022-08-11T02:48:59;10.53;;;5.67;;
215;SDS011;45701;48.81287245;9.14186865;2022-08-11T02:51:58;8.93;;;5.67;;
215;SDS011;45701;48.81287245;9.14186865;2022-08-11T02:54:31;9.90;;;5.60;;
215;SDS011;45701;48.81287245;9.14186865;2022-08-11T02:57:05;7.97;;;5.27;;
215;SDS011;45701;48.81287245;9.14186865;2022-08-11T02:59:44;12.30;;;6.20;;
215;SDS011;45701;48.81287245;9.14186865;2022-08-11T03:02:30;9.33;;;5.50;;
215;SDS011;45701;48.81287245;9.14186865;2022-08-11T03:05:11;10.73;;;7.10;;
215;SDS011;45701;48.81287245;9.14186865;2022-08-11T03:07:49;11.73;;;6.90;;
215;SDS011;45701;48.81287245;9.14186865;2022-08-11T03:10:31;13.00;;;7.13;;
215;SDS011;45701;48.81287245;9.14186865;2022-08-11T03:13:03;11.33;;;7.33;;
215;SDS011;45701;48.81287245;9.14186865;2022-08-11T03:16:04;11.13;;;6.80;;
215;SDS011;45701;48.81287245;9.14186865;2022-08-11T03:18:55;11.40;;;6.60;;
215;SDS011;45701;48.81287245;9.14186865;2022-08-11T03:21:34;11.20;;;6.97;;
215;SDS011;45701;48.81287245;9.14186865;2022-08-11T03:24:07;9.10;;;6.30;;
215;SDS011;45701;48.81287245;9.14186865;2022-08-11T03:26:42;14.83;;;6.40;;
215;SDS011;45701;48.81287245;9.14186865;2022-08-11T03:29:19;8.57;;;5.93;;
215;SDS011;45701;48.81287245;9.14186865;2022-08-11T03:31:55;9.50;;;6.07;;
215;SDS011;45701;48.81287245;9.14186865;2022-08-11T03:34:27;10.60;;;5.97;;
215;SDS011;45701;48.81287245;9.14186865;2022-08-11T03:37:04;8.93;;;6.17;;
215;SDS011;45701;48.81287245;9.14186865;2022-08-11T03:39:59;12.63;;;6.23;;
215;SDS011;45701;48.81287245;9.14186865;2022-08-11T03:42:35;12.03;;;6.07;;
215;SDS011;45701;48.81287245;9.14186865;2022-08-11T03:45:16;14.20;;;6.60;;
215;SDS011;45701;48.81287245;9.14186865;2022-08-11T03:48:01;8.97;;;5.97;;
215;SDS011;45701;48.81287245;9.14186865;2022-08-11T03:53:25;9.60;;;5.87;;
215;SDS011;45701;48.81287245;9.14186865;2022-08-11T03:59:27;9.00;;;6.00;;
215;SDS011;45701;48.81287245;9.14186865;2022-08-11T04:11:12;8.80;;;5.70;;
215;SDS011;45701;48.81287245;9.14186865;2022-08-11T04:20:22;12.37;;;5.70;;
215;SDS011;45701;48.81287245;9.14186865;2022-08-11T04:23:13;9.03;;;5.90;;
215;SDS011;45701;48.81287245;9.14186865;2022-08-11T04:28:49;9.70;;;5.60;;
215;SDS011;45701;48.81287245;9.14186865;2022-08-11T04:31:36;8.93;;;6.13;;
215;SDS011;45701;48.81287245;9.14186865;2022-08-11T04:34:11;12.40;;;6.80;;
215;SDS011;45701;48.81287245;9.14186865;2022-08-11T04:37:11;11.80;;;6.20;;
215;SDS011;45701;48.81287245;9.14186865;2022-08-11T04:46:31;12.30;;;6.30;;
215;SDS011;45701;48.81287245;9.14186865;2022-08-11T04:49:34;9.33;;;6.00;;
215;SDS011;45701;48.81287245;9.14186865;2022-08-11T04:52:50;10.20;;;6.00;;
215;SDS011;45701;48.81287245;9.14186865;2022-08-11T04:56:05;11.70;;;6.47;;
215;SDS011;45701;48.81287245;9.14186865;2022-08-11T05:02:33;10.17;;;6.17;;
215;SDS011;45701;48.81287245;9.14186865;2022-08-11T05:05:44;11.40;;;6.10;;
215;SDS011;45701;48.81287245;9.14186865;2022-08-11T05:11:34;10.90;;;6.27;;
215;SDS011;45701;48.81287245;9.14186865;2022-08-11T05:17:23;10.17;;;6.20;;
215;SDS011;45701;48.81287245;9.14186865;2022-08-11T05:20:17;14.10;;;6.10;;
215;SDS011;45701;48.81287245;9.14186865;2022-08-11T05:23:04;11.93;;;6.30;;
215;SDS011;45701;48.81287245;9.14186865;2022-08-11T05:25:51;11.23;;;6.27;;
215;SDS011;45701;48.81287245;9.14186865;2022-08-11T05:28:40;12.03;;;6.87;;
215;SDS011;45701;48.81287245;9.14186865;2022-08-11T05:31:31;13.03;;;6.97;;
215;SDS011;45701;48.81287245;9.14186865;2022-08-11T05:34:19;13.47;;;5.93;;
215;SDS011;45701;48.81287245;9.14186865;2022-08-11T05:37:06;10.93;;;5.90;;
215;SDS011;45701;48.81287245;9.14186865;2022-08-11T05:39:38;13.00;;;6.03;;
215;SDS011;45701;48.81287245;9.14186865;2022-08-11T05:42:28;12.50;;;6.20;;
215;SDS011;45701;48.81287245;9.14186865;2022-08-11T05:45:16;12.30;;;6.40;;
215;SDS011;45701;48.81287245;9.14186865;2022-08-11T05:48:02;12.97;;;6.47;;
215;SDS011;45701;48.81287245;9.14186865;2022-08-11T05:50:51;8.97;;;5.70;;
215;SDS011;45701;48.81287245;9.14186865;2022-08-11T05:53:44;10.40;;;6.10;;
215;SDS011;45701;48.81287245;9.14186865;2022-08-11T05:56:31;12.33;;;6.00;;
215;SDS011;45701;48.81287245;9.14186865;2022-08-11T05:59:00;12.70;;;6.53;;
215;SDS011;45701;48.81287245;9.14186865;2022-08-11T06:01:29;14.33;;;6.40;;
215;SDS011;45701;48.81287245;9.14186865;2022-08-11T06:03:59;9.80;;;6.00;;
215;SDS011;45701;48.81287245;9.14186865;2022-08-11T06:06:45;13.13;;;6.87;;
215;SDS011;45701;48.81287245;9.14186865;2022-08-11T06:09:28;9.30;;;5.80;;
215;SDS011;45701;48.81287245;9.14186865;2022-08-11T06:11:59;9.27;;;5.77;;
215;SDS011;45701;48.81287245;9.14186865;2022-08-11T06:14:29;8.60;;;6.20;;
215;SDS011;45701;48.81287245;9.14186865;2022-08-11T06:16:58;10.23;;;6.00;;
215;SDS011;45701;48.81287245;9.14186865;2022-08-11T06:19:30;9.00;;;5.80;;
215;SDS011;45701;48.81287245;9.14186865;2022-08-11T06:21:58;9.57;;;6.10;;
215;SDS011;45701;48.81287245;9.14186865;2022-08-11T06:24:27;13.90;;;5.93;;
215;SDS011;45701;48.81287245;9.14186865;2022-08-11T06:26:56;359.03;;;15.77;;
215;SDS011;45701;48.81287245;9.14186865;2022-08-11T06:29:24;11.90;;;5.83;;
215;SDS011;45701;48.81287245;9.14186865;2022-08-11T06:31:54;17.63;;;6.47;;
215;SDS011;45701;48.81287245;9.14186865;2022-08-11T06:34:27;14.17;;;5.77;;
215;SDS011;45701;48.81287245;9.14186865;2022-08-11T06:37:12;9.70;;;5.90;;
215;SDS011;45701;48.81287245;9.14186865;2022-08-11T06:39:46;14.27;;;6.17;;
215;SDS011;45701;48.81287245;9.14186865;2022-08-11T06:42:25;10.03;;;5.97;;
215;SDS011;45701;48.81287245;9.14186865;2022-08-11T06:45:13;18.60;;;6.40;;
215;SDS011;45701;48.81287245;9.14186865;2022-08-11T06:47:50;9.17;;;5.97;;
215;SDS011;45701;48.81287245;9.14186865;2022-08-11T06:50:18;9.80;;;5.90;;
215;SDS011;45701;48.81287245;9.14186865;2022-08-11T06:53:04;15.80;;;6.30;;
215;SDS011;45701;48.81287245;9.14186865;2022-08-11T06:55:35;13.00;;;6.27;;
215;SDS011;45701;48.81287245;9.14186865;2022-08-11T06:58:21;16.17;;;6.53;;
215;SDS011;45701;48.81287245;9.14186865;2022-08-11T07:01:12;11.13;;;5.70;;
215;SDS011;45701;48.81287245;9.14186865;2022-08-11T07:03:44;9.20;;;5.67;;
215;SDS011;45701;48.81287245;9.14186865;2022-08-11T07:06:20;10.00;;;6.23;;
215;SDS011;45701;48.81287245;9.14186865;2022-08-11T07:15:22;9.70;;;6.13;;
215;SDS011;45701;48.81287245;9.14186865;2022-08-11T07:18:10;14.87;;;6.60;;
215;SDS011;45701;48.81287245;9.14186865;2022-08-11T07:21:06;9.97;;;6.30;;
215;SDS011;45701;48.81287245;9.14186865;2022-08-11T07:23:54;10.90;;;5.63;;
215;SDS011;45701;48.81287245;9.14186865;2022-08-11T07:26:42;11.80;;;6.40;;
215;SDS011;45701;48.81287245;9.14186865;2022-08-11T07:29:31;8.90;;;6.07;;
215;SDS011;45701;48.81287245;9.14186865;2022-08-11T07:31:58;10.60;;;6.77;;
215;SDS011;45701;48.81287245;9.14186865;2022-08-11T07:34:34;11.60;;;6.20;;
215;SDS011;45701;48.81287245;9.14186865;2022-08-11T07:37:08;9.50;;;6.03;;
215;SDS011;45701;48.81287245;9.14186865;2022-08-11T07:39:40;11.73;;;6.47;;
215;SDS011;45701;48.81287245;9.14186865;2022-08-11T07:42:09;10.27;;;6.10;;
215;SDS011;45701;48.81287245;9.14186865;2022-08-11T07:44:38;26.37;;;7.30;;
215;SDS011;45701;48.81287245;9.14186865;2022-08-11T07:47:20;9.53;;;6.40;;
215;SDS011;45701;48.81287245;9.14186865;2022-08-11T07:50:05;11.17;;;6.40;;
215;SDS011;45701;48.81287245;9.14186865;2022-08-11T07:52:54;13.03;;;6.07;;
215;SDS011;45701;48.81287245;9.14186865;2022-08-11T07:55:21;9.80;;;6.53;;
215;SDS011;45701;48.81287245;9.14186865;2022-08-11T07:57:50;12.93;;;5.93;;
215;SDS011;45701;48.81287245;9.14186865;2022-08-11T08:00:36;11.43;;;6.20;;
215;SDS011;45701;48.81287245;9.14186865;2022-08-11T08:03:21;8.87;;;5.73;;
215;SDS011;45701;48.81287245;9.14186865;2022-08-11T08:06:06;13.20;;;6.37;;
215;SDS011;45701;48.81287245;9.14186865;2022-08-11T08:08:52;15.13;;;6.00;;
215;SDS011;45701;48.81287245;9.14186865;2022-08-11T08:11:38;9.80;;;5.80;;
215;SDS011;45701;48.81287245;9.14186865;2022-08-11T08:14:22;11.80;;;5.93;;
215;SDS011;45701;48.81287245;9.14186865;2022-08-11T08:17:08;8.83;;;6.00;;
215;SDS011;45701;48.81287245;9.14186865;2022-08-11T08:19:53;11.80;;;6.30;;
215;SDS011;45701;48.81287245;9.14186865;2022-08-11T08:22:20;10.40;;;5.60;;
215;SDS011;45701;48.81287245;9.14186865;2022-08-11T08:24:48;7.50;;;5.77;;
215;SDS011;45701;48.81287245;9.14186865;2022-08-11T08:27:16;8.53;;;6.10;;
215;SDS011;45701;48.81287245;9.14186865;2022-08-11T08:29:44;10.70;;;5.90;;
215;SDS011;45701;48.81287245;9.14186865;2022-08-11T08:32:29;11.77;;;6.00;;
215;SDS011;45701;48.81287245;9.14186865;2022-08-11T08:34:59;8.07;;;5.83;;
215;SDS011;45701;48.81287245;9.14186865;2022-08-11T08:37:27;7.83;;;5.90;;
215;SDS011;45701;48.81287245;9.14186865;2022-08-11T08:39:55;13.27;;;5.90;;
215;SDS011;45701;48.81287245;9.14186865;2022-08-11T08:42:24;11.43;;;6.10;;
215;SDS011;45701;48.81287245;9.14186865;2022-08-11T08:44:54;12.00;;;5.63;;
215;SDS011;45701;48.81287245;9.14186865;2022-08-11T08:47:27;9.93;;;5.50;;
215;SDS011;45701;48.81287245;9.14186865;2022-08-11T08:49:58;8.13;;;5.30;;
215;SDS011;45701;48.81287245;9.14186865;2022-08-11T08:52:28;9.60;;;5.53;;
215;SDS011;45701;48.81287245;9.14186865;2022-08-11T08:55:01;10.47;;;5.80;;
215;SDS011;45701;48.81287245;9.14186865;2022-08-11T08:57:31;11.33;;;5.40;;
215;SDS011;45701;48.81287245;9.14186865;2022-08-11T09:00:00;10.87;;;5.80;;
215;SDS011;45701;48.81287245;9.14186865;2022-08-11T09:02:27;12.40;;;5.33;;
215;SDS011;45701;48.81287245;9.14186865;2022-08-11T09:04:54;9.80;;;5.30;;
215;SDS011;45701;48.81287245;9.14186865;2022-08-11T09:07:22;6.47;;;5.20;;
215;SDS011;45701;48.81287245;9.14186865;2022-08-11T09:10:00;9.37;;;5.20;;
215;SDS011;45701;48.81287245;9.14186865;2022-08-11T09:12:29;9.80;;;4.97;;
215;SDS011;45701;48.81287245;9.14186865;2022-08-11T09:14:57;11.70;;;5.00;;
215;SDS011;45701;48.81287245;9.14186865;2022-08-11T09:17:32;6.30;;;4.77;;
215;SDS011;45701;48.81287245;9.14186865;2022-08-11T09:20:02;7.40;;;4.80;;
215;SDS011;45701;48.81287245;9.14186865;2022-08-11T09:22:31;8.63;;;5.17;;
215;SDS011;45701;48.81287245;9.14186865;2022-08-11T09:25:19;8.70;;;5.03;;
215;SDS011;45701;48.81287245;9.14186865;2022-08-11T09:28:04;8.30;;;4.53;;
215;SDS011;45701;48.81287245;9.14186865;2022-08-11T09:30:31;8.53;;;4.90;;
215;SDS011;45701;48.81287245;9.14186865;2022-08-11T09:32:59;8.90;;;5.00;;
215;SDS011;45701;48.81287245;9.14186865;2022-08-11T09:35:30;7.20;;;4.80;;
215;SDS011;45701;48.81287245;9.14186865;2022-08-11T09:38:01;8.27;;;4.30;;
215;SDS011;45701;48.81287245;9.14186865;2022-08-11T09:40:50;8.80;;;4.63;;
215;SDS011;45701;48.81287245;9.14186865;2022-08-11T09:43:17;8.30;;;4.60;;
215;SDS011;45701;48.81287245;9.14186865;2022-08-11T09:46:03;8.50;;;4.50;;
215;SDS011;45701;48.81287245;9.14186865;2022-08-11T09:48:34;7.87;;;4.87;;
215;SDS011;45701;48.81287245;9.14186865;2022-08-11T09:51:03;8.17;;;5.00;;
215;SDS011;45701;48.81287245;9.14186865;2022-08-11T09:53:34;8.43;;;4.63;;
215;SDS011;45701;48.81287245;9.14186865;2022-08-11T09:56:04;7.77;;;4.70;;
215;SDS011;45701;48.81287245;9.14186865;2022-08-11T09:58:52;9.80;;;4.67;;
215;SDS011;45701;48.81287245;9.14186865;2022-08-11T10:01:19;5.90;;;4.30;;
215;SDS011;45701;48.81287245;9.14186865;2022-08-11T10:03:54;9.70;;;4.87;;
215;SDS011;45701;48.81287245;9.14186865;2022-08-11T10:06:26;10.57;;;4.53;;
215;SDS011;45701;48.81287245;9.14186865;2022-08-11T10:09:13;7.60;;;4.50;;
215;SDS011;45701;48.81287245;9.14186865;2022-08-11T10:11:45;6.70;;;4.37;;
215;SDS011;45701;48.81287245;9.14186865;2022-08-11T10:14:12;7.93;;;4.33;;
215;SDS011;45701;48.81287245;9.14186865;2022-08-11T10:17:00;7.47;;;4.40;;
215;SDS011;45701;48.81287245;9.14186865;2022-08-11T10:19:31;11.60;;;4.60;;
215;SDS011;45701;48.81287245;9.14186865;2022-08-11T10:21:59;9.23;;;4.00;;
215;SDS011;45701;48.81287245;9.14186865;2022-08-11T10:24:50;6.60;;;4.40;;
215;SDS011;45701;48.81287245;9.14186865;2022-08-11T10:27:37;7.80;;;4.33;;
215;SDS011;45701;48.81287245;9.14186865;2022-08-11T10:30:06;7.17;;;4.00;;
215;SDS011;45701;48.81287245;9.14186865;2022-08-11T10:32:51;6.80;;;4.50;;
215;SDS011;45701;48.81287245;9.14186865;2022-08-11T10:35:35;6.73;;;4.20;;
215;SDS011;45701;48.81287245;9.14186865;2022-08-11T10:38:03;9.17;;;4.53;;
215;SDS011;45701;48.81287245;9.14186865;2022-08-11T10:40:30;7.67;;;4.23;;
215;SDS011;45701;48.81287245;9.14186865;2022-08-11T10:43:01;7.87;;;4.10;;
215;SDS011;45701;48.81287245;9.14186865;2022-08-11T10:45:29;6.70;;;4.60;;
215;SDS011;45701;48.81287245;9.14186865;2022-08-11T10:48:16;6.03;;;4.30;;
215;SDS011;45701;48.81287245;9.14186865;2022-08-11T10:50:46;7.37;;;4.30;;
215;SDS011;45701;48.81287245;9.14186865;2022-08-11T10:53:31;11.17;;;4.53;;
215;SDS011;45701;48.81287245;9.14186865;2022-08-11T10:56:16;6.70;;;4.27;;
215;SDS011;45701;48.81287245;9.14186865;2022-08-11T10:59:04;8.90;;;4.33;;
215;SDS011;45701;48.81287245;9.14186865;2022-08-11T11:01:33;7.67;;;4.30;;
215;SDS011;45701;48.81287245;9.14186865;2022-08-11T11:04:03;8.93;;;4.40;;
215;SDS011;45701;48.81287245;9.14186865;2022-08-11T11:06:35;6.50;;;4.37;;
215;SDS011;45701;48.81287245;9.14186865;2022-08-11T11:09:10;8.17;;;4.70;;
215;SDS011;45701;48.81287245;9.14186865;2022-08-11T11:11:42;6.63;;;4.43;;
215;SDS011;45701;48.81287245;9.14186865;2022-08-11T11:14:31;16.37;;;4.50;;
215;SDS011;45701;48.81287245;9.14186865;2022-08-11T11:17:19;6.53;;;4.73;;
215;SDS011;45701;48.81287245;9.14186865;2022-08-11T11:20:09;8.13;;;4.90;;
215;SDS011;45701;48.81287245;9.14186865;2022-08-11T11:22:41;7.93;;;4.87;;
215;SDS011;45701;48.81287245;9.14186865;2022-08-11T11:25:19;9.40;;;4.13;;
215;SDS011;45701;48.81287245;9.14186865;2022-08-11T11:27:53;6.70;;;4.20;;
215;SDS011;45701;48.81287245;9.14186865;2022-08-11T11:30:30;6.77;;;4.43;;
215;SDS011;45701;48.81287245;9.14186865;2022-08-11T11:33:01;8.60;;;5.00;;
215;SDS011;45701;48.81287245;9.14186865;2022-08-11T11:35:39;6.30;;;4.13;;
215;SDS011;45701;48.81287245;9.14186865;2022-08-11T11:38:14;7.33;;;4.30;;
215;SDS011;45701;48.81287245;9.14186865;2022-08-11T11:40:42;8.40;;;4.23;;
215;SDS011;45701;48.81287245;9.14186865;2022-08-11T11:43:29;10.00;;;4.33;;
215;SDS011;45701;48.81287245;9.14186865;2022-08-11T11:46:02;14.07;;;4.37;;
215;SDS011;45701;48.81287245;9.14186865;2022-08-11T11:48:30;7.60;;;4.33;;
215;SDS011;45701;48.81287245;9.14186865;2022-08-11T11:50:57;6.37;;;4.07;;
215;SDS011;45701;48.81287245;9.14186865;2022-08-11T11:53:25;6.27;;;3.83;;
215;SDS011;45701;48.81287245;9.14186865;2022-08-11T11:55:52;7.30;;;3.90;;
215;SDS011;45701;48.81287245;9.14186865;2022-08-11T11:58:19;7.80;;;4.60;;
215;SDS011;45701;48.81287245;9.14186865;2022-08-11T12:01:05;9.23;;;4.00;;
215;SDS011;45701;48.81287245;9.14186865;2022-08-11T12:03:42;9.70;;;4.57;;
215;SDS011;45701;48.81287245;9.14186865;2022-08-11T12:06:10;9.33;;;4.10;;
215;SDS011;45701;48.81287245;9.14186865;2022-08-11T12:08:38;8.13;;;4.43;;
215;SDS011;45701;48.81287245;9.14186865;2022-08-11T12:11:08;9.00;;;4.20;;
215;SDS011;45701;48.81287245;9.14186865;2022-08-11T12:13:54;6.90;;;3.97;;
215;SDS011;45701;48.81287245;9.14186865;2022-08-11T12:16:24;10.50;;;4.40;;
215;SDS011;45701;48.81287245;9.14186865;2022-08-11T12:18:53;8.33;;;4.70;;
215;SDS011;45701;48.81287245;9.14186865;2022-08-11T12:21:23;4.90;;;3.80;;
215;SDS011;45701;48.81287245;9.14186865;2022-08-11T12:23:51;5.33;;;3.90;;
215;SDS011;45701;48.81287245;9.14186865;2022-08-11T12:26:38;5.80;;;4.00;;
215;SDS011;45701;48.81287245;9.14186865;2022-08-11T12:29:19;9.60;;;4.20;;
215;SDS011;45701;48.81287245;9.14186865;2022-08-11T12:31:53;6.20;;;4.60;;
215;SDS011;45701;48.81287245;9.14186865;2022-08-11T12:34:24;7.47;;;4.07;;
215;SDS011;45701;48.81287245;9.14186865;2022-08-11T12:36:54;11.00;;;4.10;;
215;SDS011;45701;48.81287245;9.14186865;2022-08-11T12:39:24;11.00;;;4.50;;
215;SDS011;45701;48.81287245;9.14186865;2022-08-11T12:42:07;9.77;;;4.33;;
215;SDS011;45701;48.81287245;9.14186865;2022-08-11T12:44:53;7.23;;;4.07;;
215;SDS011;45701;48.81287245;9.14186865;2022-08-11T12:47:41;6.30;;;4.07;;
215;SDS011;45701;48.81287245;9.14186865;2022-08-11T12:50:29;6.83;;;4.60;;
215;SDS011;45701;48.81287245;9.14186865;2022-08-11T12:53:14;5.97;;;4.10;;
215;SDS011;45701;48.81287245;9.14186865;2022-08-11T12:55:42;7.40;;;4.40;;
215;SDS011;45701;48.81287245;9.14186865;2022-08-11T12:58:26;6.73;;;3.60;;
215;SDS011;45701;48.81287245;9.14186865;2022-08-11T13:00:53;7.50;;;4.33;;
215;SDS011;45701;48.81287245;9.14186865;2022-08-11T13:03:41;8.03;;;4.20;;
215;SDS011;45701;48.81287245;9.14186865;2022-08-11T13:06:25;7.60;;;4.17;;
215;SDS011;45701;48.81287245;9.14186865;2022-08-11T13:08:52;5.70;;;3.90;;
215;SDS011;45701;48.81287245;9.14186865;2022-08-11T13:11:22;8.23;;;3.97;;
215;SDS011;45701;48.81287245;9.14186865;2022-08-11T13:14:08;5.30;;;4.07;;
215;SDS011;45701;48.81287245;9.14186865;2022-08-11T13:16:35;4.90;;;3.60;;
215;SDS011;45701;48.81287245;9.14186865;2022-08-11T13:19:18;8.60;;;4.20;;
215;SDS011;45701;48.81287245;9.14186865;2022-08-11T13:21:46;6.00;;;3.60;;
215;SDS011;45701;48.81287245;9.14186865;2022-08-11T13:24:14;5.53;;;3.80;;
215;SDS011;45701;48.81287245;9.14186865;2022-08-11T13:26:42;7.67;;;3.90;;
215;SDS011;45701;48.81287245;9.14186865;2022-08-11T13:29:10;6.97;;;3.80;;
215;SDS011;45701;48.81287245;9.14186865;2022-08-11T13:31:39;6.87;;;3.90;;
215;SDS011;45701;48.81287245;9.14186865;2022-08-11T13:34:06;11.07;;;3.70;;
215;SDS011;45701;48.81287245;9.14186865;2022-08-11T13:36:36;6.47;;;3.90;;
215;SDS011;45701;48.81287245;9.14186865;2022-08-11T13:39:03;6.57;;;3.60;;
215;SDS011;45701;48.81287245;9.14186865;2022-08-11T13:41:30;5.03;;;3.70;;
215;SDS011;45701;48.81287245;9.14186865;2022-08-11T13:44:03;4.53;;;3.50;;
215;SDS011;45701;48.81287245;9.14186865;2022-08-11T13:46:31;6.93;;;3.87;;
215;SDS011;45701;48.81287245;9.14186865;2022-08-11T13:48:59;8.40;;;3.90;;
215;SDS011;45701;48.81287245;9.14186865;2022-08-11T13:51:26;5.77;;;3.70;;
215;SDS011;45701;48.81287245;9.14186865;2022-08-11T13:53:59;9.17;;;4.03;;
215;SDS011;45701;48.81287245;9.14186865;2022-08-11T13:56:28;5.73;;;3.67;;
215;SDS011;45701;48.81287245;9.14186865;2022-08-11T13:58:56;7.90;;;3.43;;
215;SDS011;45701;48.81287245;9.14186865;2022-08-11T14:01:25;10.50;;;3.90;;
215;SDS011;45701;48.81287245;9.14186865;2022-08-11T14:03:56;6.23;;;3.70;;
215;SDS011;45701;48.81287245;9.14186865;2022-08-11T14:06:28;6.07;;;3.50;;
215;SDS011;45701;48.81287245;9.14186865;2022-08-11T14:08:55;7.33;;;3.60;;
215;SDS011;45701;48.81287245;9.14186865;2022-08-11T14:11:25;11.93;;;3.83;;
215;SDS011;45701;48.81287245;9.14186865;2022-08-11T14:14:12;6.40;;;3.73;;
215;SDS011;45701;48.81287245;9.14186865;2022-08-11T14:16:44;4.63;;;3.40;;
215;SDS011;45701;48.81287245;9.14186865;2022-08-11T14:19:13;4.50;;;3.20;;
215;SDS011;45701;48.81287245;9.14186865;2022-08-11T14:21:42;6.50;;;3.80;;
215;SDS011;45701;48.81287245;9.14186865;2022-08-11T14:24:33;7.17;;;3.90;;
215;SDS011;45701;48.81287245;9.14186865;2022-08-11T14:27:03;7.17;;;4.03;;
215;SDS011;45701;48.81287245;9.14186865;2022-08-11T14:29:31;12.93;;;3.57;;
215;SDS011;45701;48.81287245;9.14186865;2022-08-11T14:32:03;5.70;;;3.53;;
215;SDS011;45701;48.81287245;9.14186865;2022-08-11T14:34:31;7.10;;;3.67;;
215;SDS011;45701;48.81287245;9.14186865;2022-08-11T14:37:00;4.93;;;3.33;;
215;SDS011;45701;48.81287245;9.14186865;2022-08-11T14:39:30;6.30;;;4.03;;
215;SDS011;45701;48.81287245;9.14186865;2022-08-11T14:42:05;11.27;;;3.77;;
215;SDS011;45701;48.81287245;9.14186865;2022-08-11T14:44:51;7.27;;;4.00;;
215;SDS011;45701;48.81287245;9.14186865;2022-08-11T14:47:38;10.83;;;3.77;;
215;SDS011;45701;48.81287245;9.14186865;2022-08-11T14:50:10;8.03;;;3.73;;
215;SDS011;45701;48.81287245;9.14186865;2022-08-11T14:52:42;8.40;;;3.60;;
215;SDS011;45701;48.81287245;9.14186865;2022-08-11T14:55:14;7.63;;;3.70;;
215;SDS011;45701;48.81287245;9.14186865;2022-08-11T14:58:00;5.30;;;3.67;;
215;SDS011;45701;48.81287245;9.14186865;2022-08-11T15:00:28;7.40;;;3.90;;
215;SDS011;45701;48.81287245;9.14186865;2022-08-11T15:02:56;9.00;;;3.73;;
215;SDS011;45701;48.81287245;9.14186865;2022-08-11T15:05:37;6.90;;;3.73;;
215;SDS011;45701;48.81287245;9.14186865;2022-08-11T15:08:06;7.37;;;4.37;;
215;SDS011;45701;48.81287245;9.14186865;2022-08-11T15:10:34;9.03;;;3.83;;